Harding, Illinois
Current Conditions -  °F | °C
As of 8:15 AM on Tuesday 27 Jan 2015 (Local Time) from KVYS Reporting Station
Haze Haze  
Wind Chill: 21°   Ceiling: 1000
Heat Index: 29°   Visibility: 4mi
Dew Point: 27°   Wind: 8mph
Humidity: 92%   Direction: 10°N
Pressure: 30.11"   Gusts: NA
Location:  41.5869°N, 88.887°W
Report Text: KVYS 271415Z AUTO 01007KT 4SM BR OVC010 M02/M03 A3011 RMK AO2 T10171028
Loading
Personal Weather Stations






























Interactive Weather Map New forecast layout! Learn more

10-Day Weather Forecast

Advertisements
Track Severe Weather on mobile